Du har inga inställningar för hoppväder.nu

Hoppväder.nu

Senast uppdaterat 02:17

UTC-tid

2018-01-17 kl. 01:17


Sol och måne

Solen går upp 8:39 och går ner 15:59 (beräknade cirkatider)
Nästa fullmåne blir om 14 dagar (2018-01-31)

METAR

ESGG (Landvetter)
(27 minuter sedan)
ESGG 170050Z 24006KT 0300 R03/0900D R21/1200D FZFG VV004 M00/M01 Q0982 RWY 21 SLUSH 51-100 PCT 1 MM BA GOOD=



ESGP (Säve)
ESGP NIL=



ESIB (Såtenäs)
(27 minuter sedan)
ESIB 170050Z AUTO 16004KT 7000 -FZRASN SCT010/// BKN013/// OVC036/// 00/00 Q0982 REFZDZ=



ESGT (Trollhättan/Vänersborg)
ESGT NIL=






TAF

ESGG (Landvetter)
(68 minuter sedan)
ESGG AAB 170009Z 1700/1724 21003KT 9000 OVC006 PROB40 1700/1706 0300 FZFG VV002 PROB40 1706/1712 4000 BR BKN004 TEMPO 1712/1718 BKN012 PROB40 1718/1724 2000 BR BKN004=



ESGP (Säve)
ESGP



ESIB (Såtenäs)
(317 minuter sedan)
ESIB 162000Z NIL=



ESGT (Trollhättan/Vänersborg)
(137 minuter sedan)
ESGT 162300Z NIL=





Kodnycklar till TAF och METAR






LHP

(Vårgårda är område I4c i Norra delen)

Prognos är inte uppdaterad




Spotting

Hur fungerar spotthjälpen och Vindkartan?

Markvind är ca 0 m/s.



Vindkartan

Senast uppdaterad 02:17



All data kommer från LFV.se